Terminal Aerodrome Forecast
Issued by NWS

Home | Current Version | Previous Version | Graphics & Text | Print | Product List | Glossary On
Versions: 1 2 3 4 5 6 7 8 9 10 11 12 13 14 15 16 17 18 19 20 21 22 23 24 25 26 27 28 29 30 31 32
407
FTUS42 KMHX 221524 AAB
TAFISO
TAF AMD
KISO 221524Z 2215/2312 21012G18KT P6SM BKN040
      TEMPO 2215/2217 BKN025
     FM221800 20010G15KT P6SM VCTS BKN050CB
     FM230400 20005KT P6SM VCTS BKN030CB
     FM230600 20005KT 6SM -TSRA OVC026CB
      AMD LTD TO CLD VIS AND WIND=

USA.gov is the U.S. government's official web portal to all federal, state and local government web resources and services.